sensor_id;sensor_type;location;lat;lon;timestamp;temperature;humidity
36002;DHT22;22070;50.922;5.430;2022-12-07T00:02:04;6.30;99.90
36002;DHT22;22070;50.922;5.430;2022-12-07T00:04:30;6.30;99.90
36002;DHT22;22070;50.922;5.430;2022-12-07T00:06:56;6.20;99.90
36002;DHT22;22070;50.922;5.430;2022-12-07T00:09:21;6.30;99.90
36002;DHT22;22070;50.922;5.430;2022-12-07T00:11:51;6.20;99.90
36002;DHT22;22070;50.922;5.430;2022-12-07T00:14:18;6.20;99.90
36002;DHT22;22070;50.922;5.430;2022-12-07T00:16:44;6.10;99.90
36002;DHT22;22070;50.922;5.430;2022-12-07T00:19:11;6.10;99.90
36002;DHT22;22070;50.922;5.430;2022-12-07T00:21:37;6.10;99.90
36002;DHT22;22070;50.922;5.430;2022-12-07T00:24:04;6.10;99.90
36002;DHT22;22070;50.922;5.430;2022-12-07T00:26:35;6.10;99.90
36002;DHT22;22070;50.922;5.430;2022-12-07T00:29:04;6.10;99.90
36002;DHT22;22070;50.922;5.430;2022-12-07T00:31:33;6.10;99.90
36002;DHT22;22070;50.922;5.430;2022-12-07T00:34:01;6.00;99.90
36002;DHT22;22070;50.922;5.430;2022-12-07T00:36:26;6.00;99.90
36002;DHT22;22070;50.922;5.430;2022-12-07T00:38:53;6.00;99.90
36002;DHT22;22070;50.922;5.430;2022-12-07T00:41:22;6.00;99.90
36002;DHT22;22070;50.922;5.430;2022-12-07T00:43:49;6.00;99.90
36002;DHT22;22070;50.922;5.430;2022-12-07T00:46:16;5.90;99.90
36002;DHT22;22070;50.922;5.430;2022-12-07T00:48:42;6.00;99.90
36002;DHT22;22070;50.922;5.430;2022-12-07T00:51:10;6.00;99.90
36002;DHT22;22070;50.922;5.430;2022-12-07T00:53:37;5.90;99.90
36002;DHT22;22070;50.922;5.430;2022-12-07T00:56:17;5.90;99.90
36002;DHT22;22070;50.922;5.430;2022-12-07T00:58:43;6.10;99.90
36002;DHT22;22070;50.922;5.430;2022-12-07T01:01:10;6.10;99.90
36002;DHT22;22070;50.922;5.430;2022-12-07T01:03:37;6.10;99.90
36002;DHT22;22070;50.922;5.430;2022-12-07T01:06:03;6.00;99.90
36002;DHT22;22070;50.922;5.430;2022-12-07T01:08:31;6.00;99.90
36002;DHT22;22070;50.922;5.430;2022-12-07T01:11:00;6.00;99.90
36002;DHT22;22070;50.922;5.430;2022-12-07T01:13:26;6.00;99.90
36002;DHT22;22070;50.922;5.430;2022-12-07T01:15:57;6.10;99.90
36002;DHT22;22070;50.922;5.430;2022-12-07T01:18:23;6.10;99.90
36002;DHT22;22070;50.922;5.430;2022-12-07T01:21:00;6.20;99.90
36002;DHT22;22070;50.922;5.430;2022-12-07T01:23:26;6.00;99.90
36002;DHT22;22070;50.922;5.430;2022-12-07T01:26:01;6.00;99.90
36002;DHT22;22070;50.922;5.430;2022-12-07T01:28:27;6.00;99.90
36002;DHT22;22070;50.922;5.430;2022-12-07T01:33:23;5.90;99.90
36002;DHT22;22070;50.922;5.430;2022-12-07T01:35:48;5.90;99.90
36002;DHT22;22070;50.922;5.430;2022-12-07T01:38:14;5.90;99.90
36002;DHT22;22070;50.922;5.430;2022-12-07T01:40:39;6.00;99.90
36002;DHT22;22070;50.922;5.430;2022-12-07T01:43:16;5.90;99.90
36002;DHT22;22070;50.922;5.430;2022-12-07T01:45:43;5.90;99.90
36002;DHT22;22070;50.922;5.430;2022-12-07T01:48:10;5.90;99.90
36002;DHT22;22070;50.922;5.430;2022-12-07T01:50:37;5.90;99.90
36002;DHT22;22070;50.922;5.430;2022-12-07T01:53:06;5.90;99.90
36002;DHT22;22070;50.922;5.430;2022-12-07T01:55:37;5.90;99.90
36002;DHT22;22070;50.922;5.430;2022-12-07T01:58:04;5.90;99.90
36002;DHT22;22070;50.922;5.430;2022-12-07T02:00:30;5.90;99.90
36002;DHT22;22070;50.922;5.430;2022-12-07T02:05:53;5.90;99.90
36002;DHT22;22070;50.922;5.430;2022-12-07T02:08:20;5.90;99.90
36002;DHT22;22070;50.922;5.430;2022-12-07T02:10:46;5.80;99.90
36002;DHT22;22070;50.922;5.430;2022-12-07T02:13:32;5.80;99.90
36002;DHT22;22070;50.922;5.430;2022-12-07T02:24:37;5.70;99.90
36002;DHT22;22070;50.922;5.430;2022-12-07T02:27:45;5.70;99.90
36002;DHT22;22070;50.922;5.430;2022-12-07T02:30:14;5.80;99.90
36002;DHT22;22070;50.922;5.430;2022-12-07T02:33:00;5.80;99.90
36002;DHT22;22070;50.922;5.430;2022-12-07T02:35:46;5.70;99.90
36002;DHT22;22070;50.922;5.430;2022-12-07T02:38:22;5.70;99.90
36002;DHT22;22070;50.922;5.430;2022-12-07T02:41:01;5.80;99.90
36002;DHT22;22070;50.922;5.430;2022-12-07T02:43:35;5.70;99.90
36002;DHT22;22070;50.922;5.430;2022-12-07T02:46:10;5.60;99.90
36002;DHT22;22070;50.922;5.430;2022-12-07T02:48:38;5.70;99.90
36002;DHT22;22070;50.922;5.430;2022-12-07T02:51:05;5.80;99.90
36002;DHT22;22070;50.922;5.430;2022-12-07T02:53:37;5.70;99.90
36002;DHT22;22070;50.922;5.430;2022-12-07T03:07:58;5.80;99.90
36002;DHT22;22070;50.922;5.430;2022-12-07T03:13:59;5.90;99.90
36002;DHT22;22070;50.922;5.430;2022-12-07T03:21:33;6.00;99.90
36002;DHT22;22070;50.922;5.430;2022-12-07T03:24:05;5.90;99.90
36002;DHT22;22070;50.922;5.430;2022-12-07T03:26:34;5.80;99.90
36002;DHT22;22070;50.922;5.430;2022-12-07T03:29:07;5.80;99.90
36002;DHT22;22070;50.922;5.430;2022-12-07T03:31:37;5.80;99.90
36002;DHT22;22070;50.922;5.430;2022-12-07T03:39:24;6.00;99.90
36002;DHT22;22070;50.922;5.430;2022-12-07T03:41:52;6.00;99.90
36002;DHT22;22070;50.922;5.430;2022-12-07T03:44:20;6.10;99.90
36002;DHT22;22070;50.922;5.430;2022-12-07T03:52:31;5.90;99.90
36002;DHT22;22070;50.922;5.430;2022-12-07T03:55:09;5.90;99.90
36002;DHT22;22070;50.922;5.430;2022-12-07T03:57:37;6.10;99.90
36002;DHT22;22070;50.922;5.430;2022-12-07T04:00:06;6.10;99.90
36002;DHT22;22070;50.922;5.430;2022-12-07T04:02:33;6.00;99.90
36002;DHT22;22070;50.922;5.430;2022-12-07T04:04:59;6.00;99.90
36002;DHT22;22070;50.922;5.430;2022-12-07T04:07:25;6.10;99.90
36002;DHT22;22070;50.922;5.430;2022-12-07T04:09:50;5.90;99.90
36002;DHT22;22070;50.922;5.430;2022-12-07T04:12:16;6.00;99.90
36002;DHT22;22070;50.922;5.430;2022-12-07T04:14:42;5.90;99.90
36002;DHT22;22070;50.922;5.430;2022-12-07T04:17:08;5.90;99.90
36002;DHT22;22070;50.922;5.430;2022-12-07T04:19:34;5.90;99.90
36002;DHT22;22070;50.922;5.430;2022-12-07T04:22:03;5.90;99.90
36002;DHT22;22070;50.922;5.430;2022-12-07T04:24:29;5.80;99.90
36002;DHT22;22070;50.922;5.430;2022-12-07T04:26:55;5.80;99.90
36002;DHT22;22070;50.922;5.430;2022-12-07T04:29:22;5.80;99.90
36002;DHT22;22070;50.922;5.430;2022-12-07T04:31:48;5.70;99.90
36002;DHT22;22070;50.922;5.430;2022-12-07T04:34:14;5.60;99.90
36002;DHT22;22070;50.922;5.430;2022-12-07T04:36:41;5.70;99.90
36002;DHT22;22070;50.922;5.430;2022-12-07T04:39:08;5.60;99.90
36002;DHT22;22070;50.922;5.430;2022-12-07T04:41:34;5.70;99.90
36002;DHT22;22070;50.922;5.430;2022-12-07T04:44:01;5.60;99.90
36002;DHT22;22070;50.922;5.430;2022-12-07T04:46:28;5.60;99.90
36002;DHT22;22070;50.922;5.430;2022-12-07T04:48:54;5.60;99.90
36002;DHT22;22070;50.922;5.430;2022-12-07T04:51:23;5.60;99.90
36002;DHT22;22070;50.922;5.430;2022-12-07T04:53:48;5.60;99.90
36002;DHT22;22070;50.922;5.430;2022-12-07T04:56:15;5.60;99.90
36002;DHT22;22070;50.922;5.430;2022-12-07T04:58:42;5.60;99.90
36002;DHT22;22070;50.922;5.430;2022-12-07T05:01:08;5.60;99.90
36002;DHT22;22070;50.922;5.430;2022-12-07T05:03:35;5.60;99.90
36002;DHT22;22070;50.922;5.430;2022-12-07T05:06:00;5.60;99.90
36002;DHT22;22070;50.922;5.430;2022-12-07T05:08:26;5.50;99.90
36002;DHT22;22070;50.922;5.430;2022-12-07T05:10:52;5.40;99.90
36002;DHT22;22070;50.922;5.430;2022-12-07T05:13:17;5.50;99.90
36002;DHT22;22070;50.922;5.430;2022-12-07T05:15:43;5.30;99.90
36002;DHT22;22070;50.922;5.430;2022-12-07T05:18:09;5.30;99.90
36002;DHT22;22070;50.922;5.430;2022-12-07T05:20:38;5.30;99.90
36002;DHT22;22070;50.922;5.430;2022-12-07T05:23:04;5.30;99.90
36002;DHT22;22070;50.922;5.430;2022-12-07T05:25:29;5.20;99.90
36002;DHT22;22070;50.922;5.430;2022-12-07T05:27:56;5.10;99.90
36002;DHT22;22070;50.922;5.430;2022-12-07T05:30:25;5.10;99.90
36002;DHT22;22070;50.922;5.430;2022-12-07T05:32:51;5.10;99.90
36002;DHT22;22070;50.922;5.430;2022-12-07T05:35:17;5.10;99.90
36002;DHT22;22070;50.922;5.430;2022-12-07T05:37:44;5.00;99.90
36002;DHT22;22070;50.922;5.430;2022-12-07T05:40:11;5.00;99.90
36002;DHT22;22070;50.922;5.430;2022-12-07T05:42:37;5.00;99.90
36002;DHT22;22070;50.922;5.430;2022-12-07T05:45:03;5.10;99.90
36002;DHT22;22070;50.922;5.430;2022-12-07T05:47:29;5.10;99.90
36002;DHT22;22070;50.922;5.430;2022-12-07T05:49:54;5.00;99.90
36002;DHT22;22070;50.922;5.430;2022-12-07T05:52:20;5.10;99.90
36002;DHT22;22070;50.922;5.430;2022-12-07T05:54:46;5.00;99.90
36002;DHT22;22070;50.922;5.430;2022-12-07T05:57:11;5.00;99.90
36002;DHT22;22070;50.922;5.430;2022-12-07T05:59:37;5.00;99.90
36002;DHT22;22070;50.922;5.430;2022-12-07T06:02:09;5.10;99.90
36002;DHT22;22070;50.922;5.430;2022-12-07T06:04:38;5.00;99.90
36002;DHT22;22070;50.922;5.430;2022-12-07T06:07:04;5.10;99.90
36002;DHT22;22070;50.922;5.430;2022-12-07T06:09:30;5.00;99.90
36002;DHT22;22070;50.922;5.430;2022-12-07T06:11:58;5.00;99.90
36002;DHT22;22070;50.922;5.430;2022-12-07T06:14:43;5.10;99.90
36002;DHT22;22070;50.922;5.430;2022-12-07T06:17:09;5.10;99.90
36002;DHT22;22070;50.922;5.430;2022-12-07T06:19:35;5.10;99.90
36002;DHT22;22070;50.922;5.430;2022-12-07T06:22:02;5.10;99.90
36002;DHT22;22070;50.922;5.430;2022-12-07T06:24:30;5.10;99.90
36002;DHT22;22070;50.922;5.430;2022-12-07T06:26:55;5.10;99.90
36002;DHT22;22070;50.922;5.430;2022-12-07T06:29:21;5.10;99.90
36002;DHT22;22070;50.922;5.430;2022-12-07T06:31:47;5.20;99.90
36002;DHT22;22070;50.922;5.430;2022-12-07T06:34:15;5.20;99.90
36002;DHT22;22070;50.922;5.430;2022-12-07T06:36:42;5.30;99.90
36002;DHT22;22070;50.922;5.430;2022-12-07T06:39:08;5.30;99.90
36002;DHT22;22070;50.922;5.430;2022-12-07T06:41:38;5.30;99.90
36002;DHT22;22070;50.922;5.430;2022-12-07T06:44:05;5.40;99.90
36002;DHT22;22070;50.922;5.430;2022-12-07T06:46:31;5.40;99.90
36002;DHT22;22070;50.922;5.430;2022-12-07T06:48:57;5.40;99.90
36002;DHT22;22070;50.922;5.430;2022-12-07T06:51:23;5.40;99.90
36002;DHT22;22070;50.922;5.430;2022-12-07T06:53:48;5.40;99.90
36002;DHT22;22070;50.922;5.430;2022-12-07T06:56:15;5.40;99.90
36002;DHT22;22070;50.922;5.430;2022-12-07T06:58:41;5.40;99.90
36002;DHT22;22070;50.922;5.430;2022-12-07T07:01:14;5.40;99.90
36002;DHT22;22070;50.922;5.430;2022-12-07T07:03:41;5.40;99.90
36002;DHT22;22070;50.922;5.430;2022-12-07T07:06:07;5.30;99.90
36002;DHT22;22070;50.922;5.430;2022-12-07T07:08:34;5.30;99.90
36002;DHT22;22070;50.922;5.430;2022-12-07T07:11:00;5.30;99.90
36002;DHT22;22070;50.922;5.430;2022-12-07T07:13:26;5.30;99.90
36002;DHT22;22070;50.922;5.430;2022-12-07T07:15:53;5.20;99.90
36002;DHT22;22070;50.922;5.430;2022-12-07T07:18:18;5.30;99.90
36002;DHT22;22070;50.922;5.430;2022-12-07T07:20:44;5.30;99.90
36002;DHT22;22070;50.922;5.430;2022-12-07T07:23:10;5.20;99.90
36002;DHT22;22070;50.922;5.430;2022-12-07T07:25:35;5.10;99.90
36002;DHT22;22070;50.922;5.430;2022-12-07T07:28:01;5.10;99.90
36002;DHT22;22070;50.922;5.430;2022-12-07T07:30:27;5.10;99.90
36002;DHT22;22070;50.922;5.430;2022-12-07T07:32:59;5.10;99.90
36002;DHT22;22070;50.922;5.430;2022-12-07T07:35:26;5.10;99.90
36002;DHT22;22070;50.922;5.430;2022-12-07T07:37:52;5.00;99.90
36002;DHT22;22070;50.922;5.430;2022-12-07T07:40:18;5.00;99.90
36002;DHT22;22070;50.922;5.430;2022-12-07T07:42:46;5.00;99.90
36002;DHT22;22070;50.922;5.430;2022-12-07T07:45:12;5.00;99.90
36002;DHT22;22070;50.922;5.430;2022-12-07T07:47:37;4.90;99.90
36002;DHT22;22070;50.922;5.430;2022-12-07T07:50:03;4.80;99.90
36002;DHT22;22070;50.922;5.430;2022-12-07T07:52:30;4.70;99.90
36002;DHT22;22070;50.922;5.430;2022-12-07T07:54:56;4.70;99.90
36002;DHT22;22070;50.922;5.430;2022-12-07T07:57:22;4.70;99.90
36002;DHT22;22070;50.922;5.430;2022-12-07T07:59:47;4.70;99.90
36002;DHT22;22070;50.922;5.430;2022-12-07T08:02:15;4.60;99.90
36002;DHT22;22070;50.922;5.430;2022-12-07T08:04:41;4.60;99.90
36002;DHT22;22070;50.922;5.430;2022-12-07T08:07:06;4.50;99.90
36002;DHT22;22070;50.922;5.430;2022-12-07T08:09:32;4.40;99.90
36002;DHT22;22070;50.922;5.430;2022-12-07T08:11:57;4.50;99.90
36002;DHT22;22070;50.922;5.430;2022-12-07T08:14:24;4.60;99.90
36002;DHT22;22070;50.922;5.430;2022-12-07T08:16:50;4.50;99.90
36002;DHT22;22070;50.922;5.430;2022-12-07T08:19:15;4.50;99.90
36002;DHT22;22070;50.922;5.430;2022-12-07T08:21:41;4.50;99.90
36002;DHT22;22070;50.922;5.430;2022-12-07T08:24:07;4.50;99.90
36002;DHT22;22070;50.922;5.430;2022-12-07T08:26:33;4.50;99.90
36002;DHT22;22070;50.922;5.430;2022-12-07T08:28:59;4.60;99.90
36002;DHT22;22070;50.922;5.430;2022-12-07T08:31:25;4.70;99.90
36002;DHT22;22070;50.922;5.430;2022-12-07T08:33:53;4.80;99.90
36002;DHT22;22070;50.922;5.430;2022-12-07T08:36:18;4.80;99.90
36002;DHT22;22070;50.922;5.430;2022-12-07T08:38:44;4.80;99.90
36002;DHT22;22070;50.922;5.430;2022-12-07T08:41:11;4.80;99.90
36002;DHT22;22070;50.922;5.430;2022-12-07T08:43:37;4.90;99.90
36002;DHT22;22070;50.922;5.430;2022-12-07T08:46:19;5.00;99.90
36002;DHT22;22070;50.922;5.430;2022-12-07T08:48:53;5.10;99.90
36002;DHT22;22070;50.922;5.430;2022-12-07T08:51:19;5.00;99.90
36002;DHT22;22070;50.922;5.430;2022-12-07T08:53:46;5.10;99.90
36002;DHT22;22070;50.922;5.430;2022-12-07T08:56:12;5.20;99.90
36002;DHT22;22070;50.922;5.430;2022-12-07T08:58:38;5.30;99.90
36002;DHT22;22070;50.922;5.430;2022-12-07T09:01:04;5.40;99.90
36002;DHT22;22070;50.922;5.430;2022-12-07T09:03:30;5.40;99.90
36002;DHT22;22070;50.922;5.430;2022-12-07T09:05:56;5.50;99.90
36002;DHT22;22070;50.922;5.430;2022-12-07T09:08:26;5.70;99.90
36002;DHT22;22070;50.922;5.430;2022-12-07T09:10:53;5.80;99.90
36002;DHT22;22070;50.922;5.430;2022-12-07T09:13:19;5.80;99.90
36002;DHT22;22070;50.922;5.430;2022-12-07T09:15:44;5.80;99.90
36002;DHT22;22070;50.922;5.430;2022-12-07T09:18:10;5.80;99.90
36002;DHT22;22070;50.922;5.430;2022-12-07T09:20:35;5.90;99.90
36002;DHT22;22070;50.922;5.430;2022-12-07T09:23:01;5.80;99.90
36002;DHT22;22070;50.922;5.430;2022-12-07T09:25:27;5.70;99.90
36002;DHT22;22070;50.922;5.430;2022-12-07T09:27:57;5.80;99.90
36002;DHT22;22070;50.922;5.430;2022-12-07T09:30:23;5.80;99.90
36002;DHT22;22070;50.922;5.430;2022-12-07T09:32:48;5.90;99.90
36002;DHT22;22070;50.922;5.430;2022-12-07T09:35:14;5.90;99.90
36002;DHT22;22070;50.922;5.430;2022-12-07T09:37:40;6.10;99.90
36002;DHT22;22070;50.922;5.430;2022-12-07T09:40:06;6.20;99.90
36002;DHT22;22070;50.922;5.430;2022-12-07T09:44:58;6.20;99.90
36002;DHT22;22070;50.922;5.430;2022-12-07T09:47:24;6.30;99.90
36002;DHT22;22070;50.922;5.430;2022-12-07T09:49:50;6.30;99.90
36002;DHT22;22070;50.922;5.430;2022-12-07T09:54:47;6.40;99.90
36002;DHT22;22070;50.922;5.430;2022-12-07T09:57:13;6.40;99.90
36002;DHT22;22070;50.922;5.430;2022-12-07T09:59:40;6.40;99.90
36002;DHT22;22070;50.922;5.430;2022-12-07T10:03:26;6.50;99.90
36002;DHT22;22070;50.922;5.430;2022-12-07T10:07:57;6.60;99.90
36002;DHT22;22070;50.922;5.430;2022-12-07T10:10:33;6.60;99.90
36002;DHT22;22070;50.922;5.430;2022-12-07T10:13:07;6.60;99.90
36002;DHT22;22070;50.922;5.430;2022-12-07T10:18:37;6.80;99.90
36002;DHT22;22070;50.922;5.430;2022-12-07T10:24:08;6.90;99.90
36002;DHT22;22070;50.922;5.430;2022-12-07T10:26:53;6.90;99.90
36002;DHT22;22070;50.922;5.430;2022-12-07T10:29:29;7.00;99.90
36002;DHT22;22070;50.922;5.430;2022-12-07T10:32:03;7.10;99.90
36002;DHT22;22070;50.922;5.430;2022-12-07T10:34:34;7.10;99.90
36002;DHT22;22070;50.922;5.430;2022-12-07T10:37:19;7.20;99.90
36002;DHT22;22070;50.922;5.430;2022-12-07T10:39:47;7.10;99.90
36002;DHT22;22070;50.922;5.430;2022-12-07T10:42:19;7.20;99.90
36002;DHT22;22070;50.922;5.430;2022-12-07T10:44:46;7.30;99.90
36002;DHT22;22070;50.922;5.430;2022-12-07T10:50:04;7.20;99.90
36002;DHT22;22070;50.922;5.430;2022-12-07T11:00:25;7.20;99.90
36002;DHT22;22070;50.922;5.430;2022-12-07T11:05:23;7.20;99.90
36002;DHT22;22070;50.922;5.430;2022-12-07T11:08:09;7.30;99.90
36002;DHT22;22070;50.922;5.430;2022-12-07T11:10:55;7.20;99.90
36002;DHT22;22070;50.922;5.430;2022-12-07T11:24:13;7.30;99.90
36002;DHT22;22070;50.922;5.430;2022-12-07T11:26:47;7.40;99.90
36002;DHT22;22070;50.922;5.430;2022-12-07T11:37:20;7.30;99.90
36002;DHT22;22070;50.922;5.430;2022-12-07T11:39:50;7.40;99.90
36002;DHT22;22070;50.922;5.430;2022-12-07T11:42:37;7.40;99.90
36002;DHT22;22070;50.922;5.430;2022-12-07T11:45:22;7.40;99.90
36002;DHT22;22070;50.922;5.430;2022-12-07T11:51:09;7.50;99.90
36002;DHT22;22070;50.922;5.430;2022-12-07T11:53:40;7.40;99.90
36002;DHT22;22070;50.922;5.430;2022-12-07T11:56:16;7.50;99.90
36002;DHT22;22070;50.922;5.430;2022-12-07T12:03:50;7.60;99.90
36002;DHT22;22070;50.922;5.430;2022-12-07T12:06:16;7.60;99.90
36002;DHT22;22070;50.922;5.430;2022-12-07T12:08:56;7.70;99.90
36002;DHT22;22070;50.922;5.430;2022-12-07T12:19:57;7.80;99.90
36002;DHT22;22070;50.922;5.430;2022-12-07T12:22:19;7.90;99.90
36002;DHT22;22070;50.922;5.430;2022-12-07T12:24:50;7.90;99.90
36002;DHT22;22070;50.922;5.430;2022-12-07T12:27:26;7.90;99.90
36002;DHT22;22070;50.922;5.430;2022-12-07T12:30:02;8.00;99.90
36002;DHT22;22070;50.922;5.430;2022-12-07T12:32:41;7.90;99.90
36002;DHT22;22070;50.922;5.430;2022-12-07T12:37:49;7.90;99.90
36002;DHT22;22070;50.922;5.430;2022-12-07T12:42:49;7.80;99.90
36002;DHT22;22070;50.922;5.430;2022-12-07T12:45:36;8.00;99.90
36002;DHT22;22070;50.922;5.430;2022-12-07T12:50:47;8.10;99.90
36002;DHT22;22070;50.922;5.430;2022-12-07T12:53:24;8.10;99.90
36002;DHT22;22070;50.922;5.430;2022-12-07T12:58:37;8.20;99.90
36002;DHT22;22070;50.922;5.430;2022-12-07T13:01:33;8.20;99.90
36002;DHT22;22070;50.922;5.430;2022-12-07T13:04:03;8.10;99.90
36002;DHT22;22070;50.922;5.430;2022-12-07T13:06:41;8.10;99.90
36002;DHT22;22070;50.922;5.430;2022-12-07T13:09:21;8.10;99.90
36002;DHT22;22070;50.922;5.430;2022-12-07T13:11:48;8.20;99.90
36002;DHT22;22070;50.922;5.430;2022-12-07T13:16:59;8.40;99.90
36002;DHT22;22070;50.922;5.430;2022-12-07T13:25:23;8.20;99.90
36002;DHT22;22070;50.922;5.430;2022-12-07T13:28:12;8.20;99.90
36002;DHT22;22070;50.922;5.430;2022-12-07T13:33:17;8.10;99.90
36002;DHT22;22070;50.922;5.430;2022-12-07T13:35:44;8.10;99.90
36002;DHT22;22070;50.922;5.430;2022-12-07T13:38:39;8.00;99.90
36002;DHT22;22070;50.922;5.430;2022-12-07T13:41:18;8.00;99.90
36002;DHT22;22070;50.922;5.430;2022-12-07T13:44:03;7.90;99.90
36002;DHT22;22070;50.922;5.430;2022-12-07T13:47:05;7.90;99.90
36002;DHT22;22070;50.922;5.430;2022-12-07T13:49:37;7.80;99.90
36002;DHT22;22070;50.922;5.430;2022-12-07T13:52:27;7.80;99.90
36002;DHT22;22070;50.922;5.430;2022-12-07T13:57:25;7.70;99.90
36002;DHT22;22070;50.922;5.430;2022-12-07T13:59:52;7.90;99.90
36002;DHT22;22070;50.922;5.430;2022-12-07T14:02:32;8.10;99.90
36002;DHT22;22070;50.922;5.430;2022-12-07T14:05:16;8.10;99.90
36002;DHT22;22070;50.922;5.430;2022-12-07T14:08:05;7.90;99.90
36002;DHT22;22070;50.922;5.430;2022-12-07T14:12:57;7.80;99.90
36002;DHT22;22070;50.922;5.430;2022-12-07T14:15:33;7.80;99.90
36002;DHT22;22070;50.922;5.430;2022-12-07T14:18:02;7.80;99.90
36002;DHT22;22070;50.922;5.430;2022-12-07T14:20:40;7.80;99.90
36002;DHT22;22070;50.922;5.430;2022-12-07T14:23:24;7.90;99.90
36002;DHT22;22070;50.922;5.430;2022-12-07T14:25:52;7.80;99.90
36002;DHT22;22070;50.922;5.430;2022-12-07T14:28:33;7.80;99.90
36002;DHT22;22070;50.922;5.430;2022-12-07T14:31:00;7.80;99.90
36002;DHT22;22070;50.922;5.430;2022-12-07T14:33:26;7.70;99.90
36002;DHT22;22070;50.922;5.430;2022-12-07T14:35:52;7.70;99.90
36002;DHT22;22070;50.922;5.430;2022-12-07T14:38:21;7.70;99.90
36002;DHT22;22070;50.922;5.430;2022-12-07T14:40:47;7.60;99.90
36002;DHT22;22070;50.922;5.430;2022-12-07T14:43:16;7.70;99.90
36002;DHT22;22070;50.922;5.430;2022-12-07T14:45:42;7.70;99.90
36002;DHT22;22070;50.922;5.430;2022-12-07T14:48:12;7.70;99.90
36002;DHT22;22070;50.922;5.430;2022-12-07T14:50:49;7.60;99.90
36002;DHT22;22070;50.922;5.430;2022-12-07T14:53:17;7.50;99.90
36002;DHT22;22070;50.922;5.430;2022-12-07T14:55:43;7.60;99.90
36002;DHT22;22070;50.922;5.430;2022-12-07T14:58:17;7.60;99.90
36002;DHT22;22070;50.922;5.430;2022-12-07T15:00:44;7.50;99.90
36002;DHT22;22070;50.922;5.430;2022-12-07T15:03:09;7.50;99.90
36002;DHT22;22070;50.922;5.430;2022-12-07T15:05:36;7.50;99.90
36002;DHT22;22070;50.922;5.430;2022-12-07T15:08:02;7.40;99.90
36002;DHT22;22070;50.922;5.430;2022-12-07T15:10:32;7.50;99.90
36002;DHT22;22070;50.922;5.430;2022-12-07T15:12:59;7.50;99.90
36002;DHT22;22070;50.922;5.430;2022-12-07T15:15:46;7.50;99.90
36002;DHT22;22070;50.922;5.430;2022-12-07T15:18:11;7.40;99.90
36002;DHT22;22070;50.922;5.430;2022-12-07T15:20:38;7.40;99.90
36002;DHT22;22070;50.922;5.430;2022-12-07T15:23:04;7.40;99.90
36002;DHT22;22070;50.922;5.430;2022-12-07T15:25:30;7.40;99.90
36002;DHT22;22070;50.922;5.430;2022-12-07T15:27:55;7.30;99.90
36002;DHT22;22070;50.922;5.430;2022-12-07T15:30:21;7.40;99.90
36002;DHT22;22070;50.922;5.430;2022-12-07T15:32:51;7.30;99.90
36002;DHT22;22070;50.922;5.430;2022-12-07T15:35:17;7.20;99.90
36002;DHT22;22070;50.922;5.430;2022-12-07T15:37:43;7.20;99.90
36002;DHT22;22070;50.922;5.430;2022-12-07T15:40:09;7.20;99.90
36002;DHT22;22070;50.922;5.430;2022-12-07T15:42:36;7.10;99.90
36002;DHT22;22070;50.922;5.430;2022-12-07T15:45:02;7.10;99.90
36002;DHT22;22070;50.922;5.430;2022-12-07T15:47:33;7.20;99.90
36002;DHT22;22070;50.922;5.430;2022-12-07T15:49:59;7.10;99.90
36002;DHT22;22070;50.922;5.430;2022-12-07T15:52:24;7.10;99.90
36002;DHT22;22070;50.922;5.430;2022-12-07T15:54:50;7.10;99.90
36002;DHT22;22070;50.922;5.430;2022-12-07T15:57:16;7.10;99.90
36002;DHT22;22070;50.922;5.430;2022-12-07T15:59:41;7.10;99.90
36002;DHT22;22070;50.922;5.430;2022-12-07T16:02:09;7.10;99.90
36002;DHT22;22070;50.922;5.430;2022-12-07T16:04:36;7.10;99.90
36002;DHT22;22070;50.922;5.430;2022-12-07T16:07:02;7.20;99.90
36002;DHT22;22070;50.922;5.430;2022-12-07T16:09:28;7.10;99.90
36002;DHT22;22070;50.922;5.430;2022-12-07T16:11:54;7.00;99.90
36002;DHT22;22070;50.922;5.430;2022-12-07T16:14:20;7.00;99.90
36002;DHT22;22070;50.922;5.430;2022-12-07T16:16:47;7.10;99.90
36002;DHT22;22070;50.922;5.430;2022-12-07T16:19:12;7.10;99.90
36002;DHT22;22070;50.922;5.430;2022-12-07T16:21:38;7.00;99.90
36002;DHT22;22070;50.922;5.430;2022-12-07T16:24:04;6.90;99.90
36002;DHT22;22070;50.922;5.430;2022-12-07T16:26:31;6.90;99.90
36002;DHT22;22070;50.922;5.430;2022-12-07T16:28:57;6.80;99.90
36002;DHT22;22070;50.922;5.430;2022-12-07T16:31:24;6.90;99.90
36002;DHT22;22070;50.922;5.430;2022-12-07T16:33:53;6.80;99.90
36002;DHT22;22070;50.922;5.430;2022-12-07T16:36:19;6.80;99.90
36002;DHT22;22070;50.922;5.430;2022-12-07T16:38:47;6.70;99.90
36002;DHT22;22070;50.922;5.430;2022-12-07T16:41:13;6.70;99.90
36002;DHT22;22070;50.922;5.430;2022-12-07T16:43:40;6.60;99.90
36002;DHT22;22070;50.922;5.430;2022-12-07T16:46:05;6.50;99.90
36002;DHT22;22070;50.922;5.430;2022-12-07T16:48:31;6.40;99.90
36002;DHT22;22070;50.922;5.430;2022-12-07T16:51:03;6.40;99.90
36002;DHT22;22070;50.922;5.430;2022-12-07T16:53:28;6.40;99.90
36002;DHT22;22070;50.922;5.430;2022-12-07T16:55:54;6.50;99.90
36002;DHT22;22070;50.922;5.430;2022-12-07T16:58:20;6.50;99.90
36002;DHT22;22070;50.922;5.430;2022-12-07T17:00:45;6.50;99.90
36002;DHT22;22070;50.922;5.430;2022-12-07T17:03:11;6.50;99.90
36002;DHT22;22070;50.922;5.430;2022-12-07T17:05:42;6.50;99.90
36002;DHT22;22070;50.922;5.430;2022-12-07T17:08:09;6.50;99.90
36002;DHT22;22070;50.922;5.430;2022-12-07T17:10:36;6.50;99.90
36002;DHT22;22070;50.922;5.430;2022-12-07T17:13:03;6.50;99.90
36002;DHT22;22070;50.922;5.430;2022-12-07T17:15:57;6.50;99.90
36002;DHT22;22070;50.922;5.430;2022-12-07T17:18:23;6.50;99.90
36002;DHT22;22070;50.922;5.430;2022-12-07T17:20:49;6.60;99.90
36002;DHT22;22070;50.922;5.430;2022-12-07T17:23:14;6.60;99.90
36002;DHT22;22070;50.922;5.430;2022-12-07T17:25:40;6.50;99.90
36002;DHT22;22070;50.922;5.430;2022-12-07T17:28:05;6.50;99.90
36002;DHT22;22070;50.922;5.430;2022-12-07T17:30:31;6.50;99.90
36002;DHT22;22070;50.922;5.430;2022-12-07T17:32:57;6.50;99.90
36002;DHT22;22070;50.922;5.430;2022-12-07T17:35:22;6.50;99.90
36002;DHT22;22070;50.922;5.430;2022-12-07T17:37:48;6.40;99.90
36002;DHT22;22070;50.922;5.430;2022-12-07T17:40:14;6.50;99.90
36002;DHT22;22070;50.922;5.430;2022-12-07T17:42:40;6.40;99.90
36002;DHT22;22070;50.922;5.430;2022-12-07T17:45:11;6.30;99.90
36002;DHT22;22070;50.922;5.430;2022-12-07T17:47:37;6.20;99.90
36002;DHT22;22070;50.922;5.430;2022-12-07T17:50:04;6.30;99.90
36002;DHT22;22070;50.922;5.430;2022-12-07T17:52:30;6.20;99.90
36002;DHT22;22070;50.922;5.430;2022-12-07T17:55:14;6.20;99.90
36002;DHT22;22070;50.922;5.430;2022-12-07T17:57:40;6.10;99.90
36002;DHT22;22070;50.922;5.430;2022-12-07T18:00:06;6.10;99.90
36002;DHT22;22070;50.922;5.430;2022-12-07T18:02:33;6.10;99.90
36002;DHT22;22070;50.922;5.430;2022-12-07T18:04:58;6.20;99.90
36002;DHT22;22070;50.922;5.430;2022-12-07T18:07:24;6.30;99.90
36002;DHT22;22070;50.922;5.430;2022-12-07T18:09:50;6.20;99.90
36002;DHT22;22070;50.922;5.430;2022-12-07T18:12:15;6.10;99.90